Time;durP1;ratioP1;P1;durP2;ratioP2;P2;SDS_P1;SDS_P2;PMS_P1;PMS_P2;Temp;Humidity;BMP_temperature;BMP_pressure;BME280_temperature;BME280_humidity;BME280_pressure;Samples;Min_cycle;Max_cycle;Signal;HPM_P1;HPM_P2
2021/08/27 00:01:00;;;;;;;9.82;1.63;;;14.50;99.90;;;;;;6091060;23;20028;-77
2021/08/27 00:03:26;;;;;;;8.70;1.70;;;14.50;99.90;;;;;;6067639;23;20711;-75
2021/08/27 00:05:52;;;;;;;12.30;1.77;;;14.50;99.90;;;;;;6067773;23;20097;-76
2021/08/27 00:08:18;;;;;;;7.18;1.30;;;14.50;99.90;;;;;;6081801;23;20080;-76
2021/08/27 00:10:44;;;;;;;7.05;1.50;;;14.50;99.90;;;;;;6094190;23;20458;-75
2021/08/27 00:13:10;;;;;;;8.55;1.58;;;14.50;99.90;;;;;;6093160;23;20455;-77
2021/08/27 00:15:36;;;;;;;8.27;1.60;;;14.50;99.90;;;;;;6066861;23;20026;-77
2021/08/27 00:18:02;;;;;;;12.15;1.83;;;14.60;99.90;;;;;;6070018;23;20145;-77
2021/08/27 00:20:28;;;;;;;9.15;1.67;;;14.60;99.90;;;;;;6092402;23;20054;-80
2021/08/27 00:22:54;;;;;;;10.63;1.75;;;14.60;99.90;;;;;;6091889;23;20049;-77
2021/08/27 00:25:20;;;;;;;6.88;1.77;;;14.70;99.90;;;;;;6068698;23;20022;-76
2021/08/27 00:27:49;;;;;;;7.63;1.60;;;14.70;99.90;;;;;;6092509;23;20386;-75
2021/08/27 00:30:15;;;;;;;9.82;1.85;;;14.70;99.90;;;;;;6044471;23;20022;-75
2021/08/27 00:32:41;;;;;;;8.25;1.80;;;14.70;99.90;;;;;;6093613;23;20025;-75
2021/08/27 00:35:07;;;;;;;7.40;1.65;;;14.70;99.90;;;;;;6067955;23;20447;-74
2021/08/27 00:37:34;;;;;;;8.73;2.10;;;14.80;99.90;;;;;;6088101;23;20050;-76
2021/08/27 00:40:00;;;;;;;12.52;1.83;;;14.90;99.90;;;;;;6086611;23;20037;-76
2021/08/27 00:42:26;;;;;;;9.00;2.05;;;14.90;99.90;;;;;;6091781;23;20018;-76
2021/08/27 00:44:53;;;;;;;9.52;1.98;;;14.90;99.90;;;;;;6086600;23;20022;-76
2021/08/27 00:47:19;;;;;;;9.45;2.13;;;14.90;99.90;;;;;;6056141;23;20025;-76
2021/08/27 00:49:45;;;;;;;11.55;2.28;;;14.90;99.90;;;;;;6088794;23;20022;-76
2021/08/27 00:52:11;;;;;;;7.50;1.52;;;14.90;99.90;;;;;;6090849;23;20342;-76
2021/08/27 00:54:42;;;;;;;5.40;1.65;;;14.90;99.90;;;;;;6092577;23;20343;-76
2021/08/27 00:57:08;;;;;;;8.50;2.28;;;14.90;99.90;;;;;;6066496;23;20561;-80
2021/08/27 00:59:38;;;;;;;12.93;2.30;;;14.90;99.90;;;;;;6067861;23;20025;-80
2021/08/27 01:02:05;;;;;;;10.90;2.22;;;14.90;99.90;;;;;;6093208;23;20456;-76
2021/08/27 01:04:31;;;;;;;10.18;1.88;;;15.00;99.90;;;;;;6092186;23;20053;-77
2021/08/27 01:07:02;;;;;;;10.50;2.15;;;15.00;99.90;;;;;;6092458;23;20026;-77
2021/08/27 01:09:48;;;;;;;8.57;2.30;;;15.00;99.90;;;;;;6094083;23;20030;-77
2021/08/27 01:12:44;;;;;;;8.13;2.22;;;15.10;99.90;;;;;;6069730;23;20058;-77
2021/08/27 01:15:32;;;;;;;10.27;2.10;;;15.00;99.90;;;;;;6092533;23;20032;-77
2021/08/27 01:18:10;;;;;;;12.70;2.30;;;14.90;99.90;;;;;;6092269;23;20022;-77
2021/08/27 01:20:57;;;;;;;8.55;2.50;;;14.80;99.90;;;;;;6092481;23;20104;-77
2021/08/27 01:23:55;;;;;;;9.02;2.60;;;14.70;99.90;;;;;;6092254;23;20022;-77
2021/08/27 01:26:26;;;;;;;8.98;2.30;;;14.70;99.90;;;;;;6068530;23;20041;-77
2021/08/27 01:28:54;;;;;;;12.57;2.60;;;14.60;99.90;;;;;;6091701;23;20026;-77
2021/08/27 01:31:41;;;;;;;10.90;2.20;;;14.60;99.90;;;;;;6092062;23;20108;-76
2021/08/27 01:34:28;;;;;;;10.02;2.40;;;14.60;99.90;;;;;;6092029;23;20029;-76
2021/08/27 01:37:07;;;;;;;7.85;1.83;;;14.60;99.90;;;;;;6093188;23;20034;-77
2021/08/27 01:39:40;;;;;;;9.68;2.33;;;14.50;99.90;;;;;;6093165;23;20030;-76
2021/08/27 01:42:10;;;;;;;11.02;2.00;;;14.50;99.90;;;;;;6068941;23;20022;-76
2021/08/27 01:44:43;;;;;;;11.77;2.10;;;14.50;99.90;;;;;;6071511;23;20025;-79
2021/08/27 01:47:12;;;;;;;6.15;2.03;;;14.40;99.90;;;;;;6067499;23;20033;-79
2021/08/27 01:49:38;;;;;;;8.35;2.05;;;14.40;99.90;;;;;;6093210;23;20049;-76
2021/08/27 01:52:08;;;;;;;11.13;2.20;;;14.40;99.90;;;;;;6069357;23;20726;-76
2021/08/27 01:54:35;;;;;;;;;;;14.40;99.90;;;;;;6094969;23;20473;-77
2021/08/27 01:57:02;;;;;;;10.07;2.08;;;14.30;99.90;;;;;;6093760;23;20346;-77
2021/08/27 01:59:36;;;;;;;8.43;2.10;;;14.30;99.90;;;;;;6067227;23;20022;-77
2021/08/27 02:02:04;;;;;;;7.78;1.90;;;14.30;99.90;;;;;;6091660;23;20045;-77
2021/08/27 02:04:36;;;;;;;12.88;2.38;;;14.30;99.90;;;;;;6069729;23;20489;-77
2021/08/27 02:07:04;;;;;;;9.98;2.10;;;14.30;99.90;;;;;;6069558;23;20161;-76
2021/08/27 02:09:30;;;;;;;8.50;2.53;;;14.30;99.90;;;;;;6095943;23;20018;-77
2021/08/27 02:11:56;;;;;;;11.90;1.98;;;14.30;99.90;;;;;;6096106;23;20026;-77
2021/08/27 02:14:23;;;;;;;9.13;2.13;;;14.30;99.90;;;;;;6093444;23;20118;-76
2021/08/27 02:16:49;;;;;;;9.18;2.25;;;14.30;99.90;;;;;;6093610;23;20069;-76
2021/08/27 02:19:15;;;;;;;11.38;2.53;;;14.30;99.90;;;;;;6094388;23;20026;-76
2021/08/27 02:21:48;;;;;;;9.18;2.83;;;14.30;99.90;;;;;;6094037;23;20109;-76
2021/08/27 02:24:21;;;;;;;9.25;2.35;;;14.40;99.90;;;;;;6070829;23;20113;-77
2021/08/27 02:26:49;;;;;;;10.02;2.22;;;14.50;99.90;;;;;;6071471;23;20466;-77
2021/08/27 02:29:18;;;;;;;9.52;2.42;;;14.50;99.90;;;;;;6093923;23;20026;-77
2021/08/27 02:31:48;;;;;;;11.77;2.13;;;14.50;99.90;;;;;;6068961;23;20036;-77
2021/08/27 02:34:16;;;;;;;14.68;2.22;;;14.50;99.90;;;;;;6067848;23;20057;-77
2021/08/27 02:36:45;;;;;;;9.27;2.63;;;14.50;99.90;;;;;;6069926;23;20105;-76
2021/08/27 02:39:16;;;;;;;9.50;2.20;;;14.50;99.90;;;;;;6070318;23;20025;-77
2021/08/27 02:41:42;;;;;;;11.45;2.22;;;14.50;99.90;;;;;;6093751;23;20058;-77
2021/08/27 02:44:08;;;;;;;11.23;2.53;;;14.50;99.90;;;;;;6092750;23;20032;-76
2021/08/27 02:46:36;;;;;;;10.32;1.92;;;14.50;99.90;;;;;;6093439;23;20022;-76
2021/08/27 02:49:02;;;;;;;9.65;2.10;;;14.50;99.90;;;;;;6070393;23;20424;-76
2021/08/27 02:51:41;;;;;;;9.48;2.38;;;14.50;99.90;;;;;;6091080;23;20022;-76
2021/08/27 02:54:09;;;;;;;11.63;2.53;;;14.50;99.90;;;;;;6092080;23;20057;-76
2021/08/27 02:56:37;;;;;;;11.57;2.53;;;14.50;99.90;;;;;;6070525;23;20021;-76
2021/08/27 02:59:11;;;;;;;9.77;2.13;;;14.50;99.90;;;;;;6070872;23;20053;-76
2021/08/27 03:01:40;;;;;;;8.10;2.25;;;14.40;99.90;;;;;;6092822;23;20076;-76
2021/08/27 03:04:43;;;;;;;8.77;1.95;;;14.50;99.90;;;;;;6047754;23;20030;-77
2021/08/27 03:07:13;;;;;;;8.55;2.17;;;14.50;99.90;;;;;;6070962;23;20026;-76
2021/08/27 03:09:54;;;;;;;11.57;2.50;;;14.40;99.90;;;;;;6093025;23;20022;-76
2021/08/27 03:12:46;;;;;;;9.80;2.03;;;14.40;99.90;;;;;;6068218;23;20018;-77
2021/08/27 03:15:21;;;;;;;6.30;1.88;;;14.40;99.90;;;;;;6083413;23;20026;-77
2021/08/27 03:17:48;;;;;;;8.93;2.00;;;14.50;99.90;;;;;;6069151;23;20026;-77
2021/08/27 03:20:45;;;;;;;6.55;1.90;;;14.60;99.90;;;;;;6067388;23;20366;-77
2021/08/27 03:23:14;;;;;;;9.13;2.00;;;14.60;99.90;;;;;;6092464;23;20678;-77
2021/08/27 03:25:43;;;;;;;10.65;1.73;;;14.70;99.90;;;;;;6067952;23;20029;-77
2021/08/27 03:28:22;;;;;;;8.27;1.48;;;14.60;99.90;;;;;;6091738;23;20026;-77
2021/08/27 03:30:52;;;;;;;6.35;1.48;;;14.60;99.90;;;;;;6067979;23;20105;-77
2021/08/27 03:33:22;;;;;;;7.78;1.52;;;14.60;99.90;;;;;;6090906;23;20451;-77
2021/08/27 03:35:50;;;;;;;6.88;1.48;;;14.50;99.90;;;;;;6092330;23;20454;-77
2021/08/27 03:38:16;;;;;;;8.65;1.80;;;14.60;99.90;;;;;;6066700;23;20022;-77
2021/08/27 03:40:44;;;;;;;5.28;1.42;;;14.50;99.90;;;;;;6069908;23;20026;-77
2021/08/27 03:43:13;;;;;;;4.35;1.08;;;14.60;99.90;;;;;;6093039;23;20517;-77
2021/08/27 03:45:40;;;;;;;6.15;1.70;;;14.50;99.90;;;;;;6068661;23;20021;-76
2021/08/27 03:48:06;;;;;;;8.70;1.52;;;14.50;99.90;;;;;;6071256;23;20022;-77
2021/08/27 03:50:32;;;;;;;4.85;1.65;;;14.50;99.90;;;;;;6068634;23;20430;-76
2021/08/27 03:52:59;;;;;;;6.82;1.88;;;14.40;99.90;;;;;;6092694;23;20018;-77
2021/08/27 03:55:27;;;;;;;7.90;1.80;;;14.50;99.90;;;;;;6068264;23;20025;-77
2021/08/27 03:57:55;;;;;;;8.38;2.00;;;14.60;99.90;;;;;;6070660;23;20346;-77
2021/08/27 04:00:22;;;;;;;5.60;1.48;;;14.60;99.90;;;;;;6092066;23;20076;-77
2021/08/27 04:02:53;;;;;;;9.23;2.38;;;14.60;99.90;;;;;;6069183;23;20077;-77
2021/08/27 04:05:21;;;;;;;8.93;2.00;;;14.50;99.90;;;;;;6091411;23;20351;-76
2021/08/27 04:07:51;;;;;;;7.32;1.90;;;14.50;99.90;;;;;;6095097;23;20053;-76
2021/08/27 04:10:20;;;;;;;8.98;2.30;;;14.50;99.90;;;;;;6092754;23;20026;-77
2021/08/27 04:12:47;;;;;;;10.85;1.90;;;14.50;99.90;;;;;;6069318;23;20410;-77
2021/08/27 04:15:14;;;;;;;7.78;1.95;;;14.50;99.90;;;;;;6094268;23;20030;-77
2021/08/27 04:17:41;;;;;;;7.15;1.98;;;14.50;99.90;;;;;;6091683;23;20101;-77
2021/08/27 04:20:10;;;;;;;10.02;2.22;;;14.40;99.90;;;;;;6069404;23;20026;-77
2021/08/27 04:22:36;;;;;;;11.40;2.28;;;14.40;99.90;;;;;;6068600;23;20032;-77
2021/08/27 04:25:02;;;;;;;8.32;2.10;;;14.40;99.90;;;;;;6093690;23;20025;-77
2021/08/27 04:27:28;;;;;;;9.05;2.70;;;14.30;99.90;;;;;;6093601;23;20026;-77
2021/08/27 04:29:54;;;;;;;13.45;2.85;;;14.30;99.90;;;;;;6093456;23;20154;-77
2021/08/27 04:32:21;;;;;;;9.57;2.55;;;14.30;99.90;;;;;;6067718;23;20029;-76
2021/08/27 04:34:46;;;;;;;11.63;2.38;;;14.30;99.90;;;;;;6092624;23;20386;-77
2021/08/27 04:37:12;;;;;;;9.75;1.95;;;14.30;99.90;;;;;;6092838;23;20660;-77
2021/08/27 04:39:38;;;;;;;10.23;2.53;;;14.40;99.90;;;;;;6067308;23;20089;-77
2021/08/27 04:42:04;;;;;;;11.20;2.28;;;14.40;99.90;;;;;;6092318;23;20018;-77
2021/08/27 04:44:30;;;;;;;8.63;2.08;;;14.40;99.90;;;;;;6068217;23;20065;-76
2021/08/27 04:46:56;;;;;;;10.57;2.40;;;14.40;99.90;;;;;;6069066;23;20029;-76
2021/08/27 04:49:22;;;;;;;10.10;2.13;;;14.40;99.90;;;;;;6068229;23;20085;-76
2021/08/27 04:51:49;;;;;;;11.60;2.50;;;14.50;99.90;;;;;;6091742;23;20485;-76
2021/08/27 04:54:14;;;;;;;13.95;2.70;;;14.50;99.90;;;;;;6093332;23;20407;-77
2021/08/27 04:56:40;;;;;;;13.88;2.67;;;14.50;99.90;;;;;;6068348;23;20026;-77
2021/08/27 04:59:06;;;;;;;8.52;2.80;;;14.40;99.90;;;;;;6093396;23;20099;-76
2021/08/27 05:01:32;;;;;;;9.15;2.42;;;14.40;99.90;;;;;;6090994;23;20029;-76
2021/08/27 05:03:58;;;;;;;7.07;2.15;;;14.30;99.90;;;;;;6092087;23;20033;-77
2021/08/27 05:06:24;;;;;;;10.57;2.60;;;14.30;99.90;;;;;;6093260;23;20069;-76
2021/08/27 05:08:49;;;;;;;12.77;3.03;;;14.30;99.90;;;;;;6090888;23;20105;-76
2021/08/27 05:11:15;;;;;;;12.30;2.50;;;14.20;99.90;;;;;;6094087;23;20077;-76
2021/08/27 05:13:41;;;;;;;9.60;2.25;;;14.20;99.90;;;;;;6068080;23;20045;-76
2021/08/27 05:16:07;;;;;;;11.32;2.28;;;14.20;99.90;;;;;;6068933;23;20022;-76
2021/08/27 05:18:33;;;;;;;7.88;2.20;;;14.20;99.90;;;;;;6069035;23;20030;-76
2021/08/27 05:20:59;;;;;;;9.85;2.25;;;14.10;99.90;;;;;;6091588;23;20018;-76
2021/08/27 05:23:25;;;;;;;9.85;2.17;;;14.10;99.90;;;;;;6069964;23;20022;-76
2021/08/27 05:25:57;;;;;;;7.47;1.70;;;14.10;99.90;;;;;;6090511;23;20125;-76
2021/08/27 05:28:23;;;;;;;12.45;2.55;;;14.10;99.90;;;;;;6067570;23;20026;-76
2021/08/27 05:30:49;;;;;;;6.18;1.67;;;14.00;99.90;;;;;;6066474;23;20029;-76
2021/08/27 05:33:14;;;;;;;9.10;2.38;;;14.00;99.90;;;;;;6093175;23;20459;-76
2021/08/27 05:35:40;;;;;;;10.35;2.63;;;14.00;99.90;;;;;;6090091;23;20026;-76
2021/08/27 05:38:06;;;;;;;5.80;1.70;;;14.00;99.90;;;;;;6089725;23;20514;-76
2021/08/27 05:40:32;;;;;;;11.88;2.47;;;14.00;99.90;;;;;;6066729;23;20077;-76
2021/08/27 05:42:58;;;;;;;8.75;2.00;;;13.90;99.90;;;;;;6091900;23;20405;-76
2021/08/27 05:45:23;;;;;;;11.38;2.60;;;14.00;99.90;;;;;;6066669;23;20363;-76
2021/08/27 05:47:49;;;;;;;14.40;2.30;;;14.00;99.90;;;;;;6066607;23;20030;-76
2021/08/27 05:50:17;;;;;;;19.42;3.33;;;14.00;99.90;;;;;;6088953;23;20026;-77
2021/08/27 05:52:44;;;;;;;12.55;2.83;;;14.10;99.90;;;;;;6090256;23;20105;-77
2021/08/27 05:55:11;;;;;;;13.63;2.80;;;14.10;99.90;;;;;;6067875;23;20578;-77
2021/08/27 05:57:36;;;;;;;11.27;2.38;;;14.20;99.90;;;;;;6093907;23;20088;-77
2021/08/27 06:00:06;;;;;;;10.30;2.58;;;14.30;99.90;;;;;;6091917;23;20541;-77
2021/08/27 06:02:32;;;;;;;10.27;2.50;;;14.30;99.90;;;;;;6093093;23;20026;-77
2021/08/27 06:05:01;;;;;;;9.48;2.30;;;14.40;99.90;;;;;;6092187;23;20022;-77
2021/08/27 06:07:27;;;;;;;10.85;2.80;;;14.40;99.90;;;;;;6069353;23;20026;-77
2021/08/27 06:09:53;;;;;;;13.43;2.50;;;14.50;99.90;;;;;;6094687;23;20089;-77
2021/08/27 06:12:19;;;;;;;10.70;2.55;;;14.60;99.90;;;;;;6091643;23;20018;-78
2021/08/27 06:14:45;;;;;;;12.88;2.88;;;14.60;99.90;;;;;;6071129;23;20022;-78
2021/08/27 06:17:11;;;;;;;13.02;2.97;;;14.60;99.90;;;;;;6070132;23;20112;-78
2021/08/27 06:19:37;;;;;;;11.02;2.50;;;14.60;99.90;;;;;;6068613;23;20021;-78
2021/08/27 06:22:03;;;;;;;14.23;2.58;;;14.60;99.90;;;;;;6093990;23;20062;-77
2021/08/27 06:24:29;;;;;;;9.38;1.95;;;14.70;99.90;;;;;;6091910;23;20104;-77
2021/08/27 06:26:56;;;;;;;11.98;2.85;;;14.70;99.90;;;;;;6093019;23;20466;-78
2021/08/27 06:29:22;;;;;;;13.82;2.90;;;14.60;99.90;;;;;;6068837;23;20028;-78
2021/08/27 06:31:49;;;;;;;9.68;2.22;;;14.70;99.90;;;;;;6091674;23;20026;-78
2021/08/27 06:34:15;;;;;;;8.57;2.97;;;14.70;99.90;;;;;;6092932;23;20030;-78
2021/08/27 06:36:40;;;;;;;14.35;3.17;;;14.60;99.90;;;;;;6093400;23;20514;-77
2021/08/27 06:39:06;;;;;;;13.38;2.67;;;14.70;99.90;;;;;;6093737;23;20033;-77
2021/08/27 06:41:32;;;;;;;11.57;2.92;;;14.70;99.90;;;;;;6067433;23;20408;-77
2021/08/27 06:43:58;;;;;;;8.07;2.17;;;14.70;99.90;;;;;;6068970;23;20022;-77
2021/08/27 06:46:28;;;;;;;16.52;3.47;;;14.80;99.90;;;;;;6069277;23;20587;-77
2021/08/27 06:48:54;;;;;;;11.57;3.00;;;14.90;99.90;;;;;;6094301;23;20161;-77
2021/08/27 06:51:20;;;;;;;15.50;3.40;;;15.00;99.90;;;;;;6093842;23;20053;-77
2021/08/27 06:53:46;;;;;;;9.02;2.10;;;15.10;99.90;;;;;;6069466;23;20387;-77
2021/08/27 06:56:12;;;;;;;11.20;3.00;;;15.10;99.90;;;;;;6069053;23;20065;-77
2021/08/27 06:58:38;;;;;;;17.38;3.53;;;15.10;99.90;;;;;;6068935;23;20030;-77
2021/08/27 07:01:06;;;;;;;18.55;3.22;;;15.20;99.90;;;;;;6092212;23;20053;-78
2021/08/27 07:03:32;;;;;;;13.43;2.40;;;15.20;99.90;;;;;;6069147;23;20022;-78
2021/08/27 07:06:01;;;;;;;13.27;2.67;;;15.40;99.90;;;;;;6092005;23;20065;-79
2021/08/27 07:08:27;;;;;;;13.27;2.70;;;15.50;99.90;;;;;;6069170;23;20022;-79
2021/08/27 07:10:53;;;;;;;15.63;3.00;;;15.60;99.90;;;;;;6069007;23;20109;-79
2021/08/27 07:13:19;;;;;;;11.88;3.10;;;15.70;99.90;;;;;;6090831;23;20128;-78
2021/08/27 07:15:45;;;;;;;9.85;2.40;;;15.70;99.90;;;;;;6067166;23;20026;-79
2021/08/27 07:18:10;;;;;;;11.88;2.47;;;15.70;99.90;;;;;;6094285;23;20028;-78
2021/08/27 07:20:37;;;;;;;12.18;2.33;;;15.70;99.90;;;;;;6088559;23;20033;-76
2021/08/27 07:23:04;;;;;;;13.75;2.83;;;15.70;99.90;;;;;;6092189;23;20028;-76
2021/08/27 07:25:29;;;;;;;9.40;2.42;;;15.80;99.90;;;;;;6067728;23;20743;-78
2021/08/27 07:27:55;;;;;;;10.98;2.40;;;15.80;99.90;;;;;;6065204;23;20026;-76
2021/08/27 07:30:21;;;;;;;10.90;2.45;;;15.80;99.90;;;;;;6068473;23;20411;-77
2021/08/27 07:32:47;;;;;;;11.77;2.33;;;15.80;99.90;;;;;;6089877;23;20038;-76
2021/08/27 07:35:13;;;;;;;8.18;2.10;;;16.00;99.90;;;;;;6064352;23;20108;-76
2021/08/27 07:37:40;;;;;;;7.70;1.70;;;16.10;99.90;;;;;;6064536;23;20455;-76
2021/08/27 07:40:08;;;;;;;10.18;2.63;;;16.10;99.90;;;;;;6065402;23;20351;-76
2021/08/27 07:42:34;;;;;;;10.57;1.73;;;16.10;99.90;;;;;;6065821;23;20026;-76
2021/08/27 07:45:00;;;;;;;7.97;1.63;;;16.10;99.90;;;;;;6065845;23;20720;-76
2021/08/27 07:47:26;;;;;;;7.95;1.95;;;16.00;99.90;;;;;;6066964;23;20458;-76
2021/08/27 07:49:52;;;;;;;13.50;2.45;;;16.00;99.90;;;;;;6067523;23;20069;-76
2021/08/27 07:52:18;;;;;;;8.85;1.58;;;16.00;99.90;;;;;;6067567;23;20065;-76
2021/08/27 07:54:44;;;;;;;14.25;2.85;;;16.00;99.90;;;;;;6089417;23;20030;-76
2021/08/27 07:57:10;;;;;;;8.05;1.90;;;16.00;99.90;;;;;;6092538;23;20026;-76
2021/08/27 07:59:37;;;;;;;12.13;1.83;;;16.00;99.90;;;;;;6044439;23;20372;-76
2021/08/27 08:02:06;;;;;;;10.18;1.65;;;16.00;99.90;;;;;;6089107;23;20026;-76
2021/08/27 08:04:32;;;;;;;7.33;1.83;;;16.00;99.90;;;;;;6067695;23;20026;-75
2021/08/27 08:06:58;;;;;;;7.45;2.10;;;16.10;99.90;;;;;;6067160;23;20715;-76
2021/08/27 08:09:24;;;;;;;7.65;1.77;;;16.20;99.90;;;;;;6092970;23;20132;-76
2021/08/27 08:11:49;;;;;;;6.50;1.38;;;16.20;99.90;;;;;;6092232;23;20116;-75
2021/08/27 08:14:16;;;;;;;6.07;1.73;;;16.10;99.90;;;;;;6066653;23;20443;-76
2021/08/27 08:16:47;;;;;;;7.43;1.30;;;16.10;99.90;;;;;;6043499;23;20674;-75
2021/08/27 08:19:13;;;;;;;5.35;1.42;;;16.10;99.90;;;;;;6093469;23;20026;-76
2021/08/27 08:21:39;;;;;;;8.40;1.60;;;16.10;99.90;;;;;;6066406;23;20025;-76
2021/08/27 08:24:05;;;;;;;10.90;1.88;;;16.30;99.90;;;;;;6067403;23;20481;-77
2021/08/27 08:26:31;;;;;;;4.72;1.17;;;16.50;99.90;;;;;;6093313;23;20021;-75
2021/08/27 08:28:57;;;;;;;6.75;1.42;;;16.80;99.90;;;;;;6067512;23;20504;-75
2021/08/27 08:31:23;;;;;;;5.93;1.55;;;16.90;99.90;;;;;;6043307;23;20030;-75
2021/08/27 08:33:53;;;;;;;11.63;2.25;;;17.00;99.90;;;;;;6091443;23;20466;-76
2021/08/27 08:36:20;;;;;;;10.65;2.20;;;17.10;99.90;;;;;;6091711;23;20116;-76
2021/08/27 08:38:47;;;;;;;10.85;1.85;;;17.10;99.90;;;;;;6067200;23;20100;-75
2021/08/27 08:41:16;;;;;;;9.77;2.00;;;17.40;99.90;;;;;;6065802;23;20034;-76
2021/08/27 08:43:46;;;;;;;6.57;1.70;;;17.60;99.90;;;;;;6063877;23;20022;-76
2021/08/27 08:46:13;;;;;;;11.32;1.98;;;17.80;99.90;;;;;;6088233;23;20029;-76
2021/08/27 08:48:43;;;;;;;8.52;1.73;;;17.80;99.90;;;;;;6090833;23;20026;-75
2021/08/27 08:51:10;;;;;;;9.88;1.77;;;17.70;99.90;;;;;;6090425;23;20108;-75
2021/08/27 08:53:40;;;;;;;8.52;1.42;;;17.50;99.90;;;;;;6042526;23;20073;-75
2021/08/27 08:56:08;;;;;;;10.35;2.38;;;17.30;99.90;;;;;;6068216;23;20018;-76
2021/08/27 08:58:34;;;;;;;6.88;1.88;;;17.00;99.90;;;;;;6092260;23;20029;-76
2021/08/27 09:01:00;;;;;;;7.65;1.60;;;16.80;99.90;;;;;;6090580;23;20022;-76
2021/08/27 09:03:26;;;;;;;6.80;1.75;;;16.80;99.90;;;;;;6067377;23;20465;-76
2021/08/27 09:05:53;;;;;;;8.35;2.20;;;16.70;99.90;;;;;;6092238;23;20386;-77
2021/08/27 09:08:34;;;;;;;7.47;1.85;;;16.80;99.90;;;;;;6110074;23;20025;-76
2021/08/27 09:11:00;;;;;;;8.30;2.20;;;16.80;99.90;;;;;;6097042;23;20112;-76
2021/08/27 09:13:32;;;;;;;7.40;1.85;;;16.80;99.90;;;;;;6120807;23;20021;-76
2021/08/27 09:16:09;;;;;;;11.38;2.40;;;16.90;99.90;;;;;;6096757;23;20021;-77
2021/08/27 09:18:49;;;;;;;8.68;2.28;;;16.90;99.90;;;;;;6121980;23;20032;-77
2021/08/27 09:21:37;;;;;;;11.20;2.20;;;16.90;99.90;;;;;;6119410;23;20903;-76
2021/08/27 09:24:16;;;;;;;9.48;1.83;;;16.90;99.90;;;;;;6095775;23;20507;-77
2021/08/27 09:26:51;;;;;;;9.82;2.72;;;16.90;99.90;;;;;;6121844;23;20057;-75
2021/08/27 09:29:45;;;;;;;9.90;2.72;;;16.90;99.90;;;;;;6096875;23;20025;-76
2021/08/27 09:32:34;;;;;;;11.15;2.08;;;17.00;99.90;;;;;;6098888;23;20018;-76
2021/08/27 09:35:10;;;;;;;12.38;2.72;;;17.00;99.90;;;;;;6099257;23;20080;-76
2021/08/27 09:37:46;;;;;;;10.73;2.40;;;17.20;99.90;;;;;;6096390;23;20031;-76
2021/08/27 09:40:15;;;;;;;8.65;2.47;;;17.60;99.90;;;;;;6123836;23;20398;-76
2021/08/27 09:42:50;;;;;;;9.55;2.38;;;17.90;99.90;;;;;;6122351;23;20466;-76
2021/08/27 09:45:18;;;;;;;12.35;2.65;;;18.00;99.90;;;;;;6097018;23;20145;-76
2021/08/27 09:48:05;;;;;;;10.32;2.30;;;18.20;99.90;;;;;;6073769;23;20018;-76
2021/08/27 09:50:34;;;;;;;8.75;2.35;;;18.30;99.90;;;;;;6122291;23;20021;-76
2021/08/27 09:53:09;;;;;;;12.27;2.30;;;18.20;99.90;;;;;;6118143;23;20100;-76
2021/08/27 09:55:37;;;;;;;15.30;3.03;;;18.10;99.50;;;;;;6123270;23;20077;-75
2021/08/27 09:58:06;;;;;;;7.40;1.90;;;18.10;98.50;;;;;;6123240;23;20045;-75
2021/08/27 10:00:40;;;;;;;13.23;2.80;;;18.10;96.80;;;;;;6095493;23;20125;-75
2021/08/27 10:03:25;;;;;;;12.10;2.40;;;18.10;97.60;;;;;;6117951;23;20073;-74
2021/08/27 10:05:54;;;;;;;9.27;2.30;;;18.30;97.00;;;;;;6117508;23;20088;-76
2021/08/27 10:08:33;;;;;;;10.95;2.30;;;18.50;96.80;;;;;;6091730;23;20054;-75
2021/08/27 10:11:21;;;;;;;7.38;2.10;;;18.50;94.10;;;;;;6091700;23;20026;-74
2021/08/27 10:13:47;;;;;;;8.15;2.85;;;18.60;93.70;;;;;;6092789;23;20026;-73
2021/08/27 10:16:13;;;;;;;9.10;2.47;;;18.70;92.80;;;;;;6092169;23;20045;-74
2021/08/27 10:18:40;;;;;;;9.00;2.30;;;18.70;91.10;;;;;;6091117;23;20061;-74
2021/08/27 10:21:06;;;;;;;7.38;2.20;;;18.50;91.40;;;;;;6091935;23;20097;-73
2021/08/27 10:23:32;;;;;;;7.40;1.90;;;18.50;92.70;;;;;;6119488;23;20119;-73
2021/08/27 10:26:39;;;;;;;9.50;2.38;;;18.40;92.60;;;;;;6064572;23;20026;-72
2021/08/27 10:29:06;;;;;;;11.57;1.98;;;18.30;92.60;;;;;;6009628;23;20030;-76
2021/08/27 10:31:45;;;;;;;8.10;1.92;;;18.30;92.80;;;;;;6076364;23;20021;-78
2021/08/27 10:34:12;;;;;;;7.85;1.85;;;18.20;93.60;;;;;;6115534;23;20371;-73
2021/08/27 10:36:40;;;;;;;8.07;2.15;;;18.20;92.70;;;;;;6089837;23;20026;-74
2021/08/27 10:39:07;;;;;;;7.63;2.30;;;18.30;92.80;;;;;;6092505;23;20026;-74
2021/08/27 10:41:32;;;;;;;5.65;2.05;;;18.30;94.00;;;;;;6114828;23;20526;-73
2021/08/27 10:44:07;;;;;;;13.68;2.75;;;18.40;92.70;;;;;;6093572;23;20022;-74
2021/08/27 10:46:45;;;;;;;8.13;1.90;;;18.60;93.40;;;;;;6093763;23;20040;-72
2021/08/27 10:49:24;;;;;;;8.80;2.35;;;18.90;91.70;;;;;;6092965;23;20506;-73
2021/08/27 10:51:53;;;;;;;9.30;1.92;;;19.10;90.90;;;;;;6116028;23;20021;-74
2021/08/27 10:54:19;;;;;;;6.22;1.80;;;18.90;90.90;;;;;;6091857;23;20026;-74
2021/08/27 10:56:53;;;;;;;5.18;2.00;;;18.60;93.00;;;;;;6115440;23;20149;-72
2021/08/27 10:59:24;;;;;;;6.78;1.90;;;18.30;93.10;;;;;;6118604;23;20033;-73
2021/08/27 11:02:00;;;;;;;7.55;2.08;;;18.00;94.90;;;;;;6122255;23;20097;-73
2021/08/27 11:04:42;;;;;;;7.38;1.92;;;17.90;94.60;;;;;;6120647;23;20099;-74
2021/08/27 11:07:20;;;;;;;7.57;1.60;;;17.90;94.50;;;;;;6117009;23;20025;-74
2021/08/27 11:10:15;;;;;;;6.95;1.88;;;18.10;93.20;;;;;;6094402;23;20056;-73
2021/08/27 11:12:42;;;;;;;5.90;1.80;;;18.30;93.10;;;;;;6119091;23;20532;-72
2021/08/27 11:15:30;;;;;;;9.07;1.70;;;18.40;91.30;;;;;;6120187;23;20021;-72
2021/08/27 11:18:15;;;;;;;10.25;1.55;;;18.60;92.10;;;;;;6122049;23;20096;-72
2021/08/27 11:20:41;;;;;;;6.25;1.75;;;18.90;91.30;;;;;;6121072;23;20017;-74
2021/08/27 11:23:07;;;;;;;5.50;1.73;;;19.00;90.90;;;;;;6097780;23;20018;-74
2021/08/27 11:25:41;;;;;;;5.15;1.67;;;19.10;90.20;;;;;;6119646;23;20030;-75
2021/08/27 11:28:22;;;;;;;7.30;1.90;;;19.40;90.10;;;;;;6122268;23;20520;-74
2021/08/27 11:31:10;;;;;;;7.78;2.33;;;19.60;90.70;;;;;;6123060;23;20398;-73
2021/08/27 11:33:45;;;;;;;5.57;1.70;;;19.60;90.10;;;;;;6092246;23;20093;-74
2021/08/27 11:36:12;;;;;;;6.93;1.90;;;19.10;91.40;;;;;;6122165;23;20022;-73
2021/08/27 11:38:39;;;;;;;7.78;1.90;;;18.60;92.70;;;;;;6095109;23;20033;-74
2021/08/27 11:41:05;;;;;;;6.10;1.45;;;18.10;93.60;;;;;;6122473;23;20029;-74
2021/08/27 11:43:45;;;;;;;5.93;1.95;;;17.90;94.50;;;;;;6096230;23;20468;-75
2021/08/27 11:46:15;;;;;;;9.05;2.30;;;17.70;95.00;;;;;;6098147;23;20017;-74
2021/08/27 11:48:52;;;;;;;7.80;1.95;;;17.70;95.20;;;;;;6098226;23;20450;-74
2021/08/27 11:51:27;;;;;;;9.10;1.88;;;17.80;95.70;;;;;;6097100;23;20481;-75
2021/08/27 11:53:53;;;;;;;7.05;2.08;;;18.00;95.80;;;;;;6098033;23;20032;-74
2021/08/27 11:56:25;;;;;;;10.07;2.05;;;18.20;94.20;;;;;;6096727;23;20053;-75
2021/08/27 11:58:51;;;;;;;11.60;2.50;;;18.60;93.50;;;;;;6122237;23;20480;-74
2021/08/27 12:01:28;;;;;;;8.60;2.05;;;18.70;92.50;;;;;;6097839;23;20025;-75
2021/08/27 12:03:54;;;;;;;10.65;2.08;;;18.70;93.10;;;;;;6096540;23;20029;-75
2021/08/27 12:06:25;;;;;;;9.20;1.90;;;18.70;92.80;;;;;;6092428;23;20049;-76
2021/08/27 12:08:51;;;;;;;8.48;1.73;;;18.80;92.60;;;;;;6095721;23;20028;-76
2021/08/27 12:11:33;;;;;;;8.07;1.95;;;18.80;92.00;;;;;;6122074;23;20112;-75
2021/08/27 12:14:02;;;;;;;7.72;2.15;;;18.90;92.20;;;;;;6122177;23;20104;-75
2021/08/27 12:16:28;;;;;;;10.07;1.90;;;19.00;92.50;;;;;;6121060;23;20482;-74
2021/08/27 12:18:55;;;;;;;8.35;2.03;;;19.30;92.30;;;;;;6098004;23;20215;-73
2021/08/27 12:21:28;;;;;;;14.90;2.28;;;19.50;93.10;;;;;;6120491;23;20026;-73
2021/08/27 12:24:09;;;;;;;7.90;1.83;;;19.80;93.30;;;;;;6120685;23;20021;-73
2021/08/27 12:26:36;;;;;;;10.27;2.28;;;20.00;87.90;;;;;;6095540;23;20107;-73
2021/08/27 12:29:02;;;;;;;9.75;1.90;;;19.70;89.30;;;;;;6095728;23;20017;-73
2021/08/27 12:31:38;;;;;;;8.95;2.10;;;19.40;90.00;;;;;;6097309;23;20108;-74
2021/08/27 12:34:05;;;;;;;5.35;1.85;;;19.20;90.70;;;;;;6070324;23;20032;-74
2021/08/27 12:36:40;;;;;;;7.80;1.90;;;19.10;90.70;;;;;;6120207;23;20018;-75
2021/08/27 12:39:08;;;;;;;9.23;2.13;;;19.00;90.20;;;;;;6120351;23;20022;-73
2021/08/27 12:41:37;;;;;;;7.20;1.88;;;18.80;91.40;;;;;;6097546;23;20031;-75
2021/08/27 12:44:13;;;;;;;8.38;2.10;;;18.80;91.30;;;;;;6121015;23;20032;-72
2021/08/27 12:46:48;;;;;;;10.25;2.05;;;18.80;91.80;;;;;;6121529;23;20024;-73
2021/08/27 12:49:20;;;;;;;6.30;1.98;;;18.90;91.40;;;;;;6096552;23;20450;-72
2021/08/27 12:51:51;;;;;;;11.73;2.30;;;18.90;91.20;;;;;;6121263;23;20100;-72
2021/08/27 12:54:18;;;;;;;7.65;1.88;;;18.90;91.30;;;;;;6121850;23;20092;-73
2021/08/27 12:57:02;;;;;;;8.02;2.08;;;18.80;91.60;;;;;;6122255;23;20025;-72